Terminal Aerodrome Forecast
Issued by NWS Austin/San Antonio, TX

Home | Current Version | Previous Version | Text Only | Print | Product List | Glossary On
Versions: 1 2 3 4 5 6 7 8 9 10 11 12 13 14 15 16
000
FTUS44 KEWX 042334
TAFDRT
TAF
KDRT 042334Z 0500/0524 12015KT P6SM VCSH SCT040 BKN070
      TEMPO 0500/0503 -SHRA BKN040
     FM050300 12015KT P6SM BKN012
     FM051000 13014KT P6SM OVC007
     FM051600 13013KT P6SM BKN015
     FM051800 14014KT P6SM BKN030
     FM052000 13016KT P6SM BKN040=

USA.gov is the U.S. government's official web portal to all federal, state and local government web resources and services.